Time;durP1;ratioP1;P1;durP2;ratioP2;P2;SDS_P1;SDS_P2;PMS_P1;PMS_P2;Temp;Humidity;BMP_temperature;BMP_pressure;BME280_temperature;BME280_humidity;BME280_pressure;Samples;Min_cycle;Max_cycle;Signal;HPM_P1;HPM_P2
2022/01/30 00:02:13;;;;;;;1.55;1.45;;;;;;;-4.95;89.02;97982.22;5047535;28;20045;-71
2022/01/30 00:04:39;;;;;;;1.00;0.90;;;;;;;-4.95;89.32;97920.72;5053378;28;20518;-71
2022/01/30 00:07:05;;;;;;;1.20;1.10;;;;;;;-4.93;89.79;97926.63;5044641;28;20040;-70
2022/01/30 00:09:31;;;;;;;2.00;1.20;;;;;;;-4.93;89.59;97931.97;5042828;28;20095;-71
2022/01/30 00:12:00;;;;;;;2.20;1.35;;;;;;;-4.93;90.05;97924.75;5047599;28;20033;-70
2022/01/30 00:14:28;;;;;;;2.55;1.20;;;;;;;-4.92;90.40;97931.72;5035576;28;20068;-70
2022/01/30 00:17:04;;;;;;;1.03;0.77;;;;;;;-4.93;90.49;97898.00;5039190;28;20056;-71
2022/01/30 00:19:39;;;;;;;1.30;1.20;;;;;;;-4.92;91.12;97904.97;5041017;28;20519;-71
2022/01/30 00:24:54;;;;;;;1.30;1.10;;;;;;;-4.89;90.89;97887.63;5029832;28;20029;-70
2022/01/30 00:27:27;;;;;;;1.55;1.30;;;;;;;-4.89;90.73;97856.31;5042479;28;20091;-70
2022/01/30 00:29:53;;;;;;;1.38;1.27;;;;;;;-4.90;91.00;97851.22;5039107;28;20037;-69
2022/01/30 00:32:19;;;;;;;1.70;1.27;;;;;;;-4.90;91.20;97853.91;5049542;28;20526;-69
2022/01/30 00:34:47;;;;;;;1.92;1.17;;;;;;;-4.91;91.22;97838.91;5042331;28;20501;-69
2022/01/30 00:37:12;;;;;;;1.20;1.08;;;;;;;-4.92;91.56;97843.47;5040524;28;20033;-70
2022/01/30 00:39:38;;;;;;;1.45;1.35;;;;;;;-4.91;91.61;97845.06;5041186;28;20049;-70
2022/01/30 00:42:04;;;;;;;1.65;1.38;;;;;;;-4.90;92.28;97811.13;5047197;28;20065;-69
2022/01/30 00:44:30;;;;;;;1.00;1.00;;;;;;;-4.91;91.99;97782.75;5018392;28;20396;-69
2022/01/30 00:46:56;;;;;;;1.20;1.10;;;;;;;-4.92;92.48;97808.69;5049789;28;20067;-69
2022/01/30 00:49:22;;;;;;;1.30;1.02;;;;;;;-4.91;92.14;97821.00;5049954;28;20128;-69
2022/01/30 00:51:48;;;;;;;2.05;1.27;;;;;;;-4.90;92.77;97779.03;5040540;28;20141;-69
2022/01/30 00:54:13;;;;;;;1.23;1.10;;;;;;;-4.90;93.21;97787.06;5052730;28;20080;-69
2022/01/30 00:56:39;;;;;;;1.27;1.17;;;;;;;-4.90;92.56;97771.00;5036313;28;20040;-70
2022/01/30 00:59:05;;;;;;;1.00;0.95;;;;;;;-4.88;92.63;97755.50;5047521;28;20041;-70
2022/01/30 01:01:32;;;;;;;1.20;1.10;;;;;;;-4.87;92.78;97746.44;5043267;28;20098;-70
2022/01/30 01:03:58;;;;;;;1.23;1.17;;;;;;;-4.88;93.29;97764.34;5050769;28;20127;-70
2022/01/30 01:06:24;;;;;;;1.10;0.90;;;;;;;-4.88;93.11;97745.63;5049647;28;20041;-70
2022/01/30 01:08:55;;;;;;;1.42;1.20;;;;;;;-4.87;93.59;97751.78;5037447;28;20429;-70
2022/01/30 01:25:07;;;;;;;1.05;0.90;;;;;;;-4.87;93.87;97699.09;5029601;28;19975;-70
2022/01/30 01:27:34;;;;;;;1.00;0.90;;;;;;;-4.86;94.09;97708.75;5037427;28;20041;-70
2022/01/30 01:29:59;;;;;;;1.20;1.10;;;;;;;-4.82;94.64;97698.34;5032428;28;20044;-70
2022/01/30 01:32:25;;;;;;;0.98;0.90;;;;;;;-4.82;94.71;97684.19;5040793;28;20400;-70
2022/01/30 01:34:51;;;;;;;1.00;0.70;;;;;;;-4.82;94.61;97676.97;5044777;28;20083;-70
2022/01/30 01:37:17;;;;;;;1.55;0.95;;;;;;;-4.81;94.31;97702.66;5039194;28;20029;-70
2022/01/30 01:39:43;;;;;;;0.85;0.80;;;;;;;-4.80;95.01;97680.19;5039049;28;20052;-70
2022/01/30 01:42:09;;;;;;;0.90;0.80;;;;;;;-4.79;94.91;97673.78;5044117;28;20079;-70
2022/01/30 01:44:43;;;;;;;2.15;0.80;;;;;;;-4.78;94.58;97664.69;5047232;28;20033;-70
2022/01/30 01:47:09;;;;;;;1.10;0.90;;;;;;;-4.77;94.56;97671.66;5045343;28;20037;-70
2022/01/30 01:49:35;;;;;;;0.80;0.80;;;;;;;-4.78;94.81;97675.38;5042285;28;20040;-70
2022/01/30 01:55:04;;;;;;;1.35;1.20;;;;;;;-4.79;94.94;97640.88;5034104;28;20090;-70
2022/01/30 01:57:29;;;;;;;0.60;0.43;;;;;;;-4.78;94.33;97648.63;5046778;28;20056;-70
2022/01/30 02:00:14;;;;;;;0.80;0.80;;;;;;;-4.77;95.06;97668.16;5035645;28;20455;-70
2022/01/30 02:02:45;;;;;;;0.70;0.70;;;;;;;-4.77;94.88;97644.09;5050484;28;20087;-72
2022/01/30 02:05:11;;;;;;;1.08;0.80;;;;;;;-4.79;94.89;97630.97;5048055;28;20411;-71
2022/01/30 02:10:23;;;;;;;0.70;0.70;;;;;;;-4.78;95.31;97629.91;5050991;28;20427;-70
2022/01/30 02:12:52;;;;;;;1.70;0.80;;;;;;;-4.77;94.78;97634.19;5034878;28;20192;-71
2022/01/30 02:26:02;;;;;;;0.70;0.70;;;;;;;-4.76;94.85;97635.81;5035808;28;20047;-70
2022/01/30 02:28:31;;;;;;;0.77;0.77;;;;;;;-4.77;95.04;97618.16;5048120;28;20496;-70
2022/01/30 02:31:06;;;;;;;0.70;0.70;;;;;;;-4.78;95.17;97613.88;5036671;28;20067;-71
2022/01/30 02:33:32;;;;;;;0.60;0.60;;;;;;;-4.77;94.94;97618.16;5049746;28;20090;-71
2022/01/30 02:35:58;;;;;;;0.60;0.60;;;;;;;-4.77;95.29;97599.44;5043477;28;20040;-71
2022/01/30 02:38:24;;;;;;;0.73;0.68;;;;;;;-4.76;95.18;97637.69;5039351;28;20053;-70
2022/01/30 02:40:53;;;;;;;0.70;0.70;;;;;;;-4.76;95.48;97585.00;5027987;28;20083;-70
2022/01/30 02:43:24;;;;;;;1.98;0.70;;;;;;;-4.75;95.19;97586.59;5038177;28;20037;-71
2022/01/30 02:46:07;;;;;;;0.73;0.70;;;;;;;-4.75;94.83;97586.59;5024514;28;20443;-70
2022/01/30 02:48:46;;;;;;;1.02;0.82;;;;;;;-4.74;95.25;97580.19;5034557;28;20095;-70
2022/01/30 02:51:14;;;;;;;0.98;0.90;;;;;;;-4.76;95.63;97593.00;5026313;28;20083;-70
2022/01/30 02:53:44;;;;;;;;;;;;;;;-4.77;94.83;97578.03;5042131;28;20033;-71
2022/01/30 02:56:10;;;;;;;0.80;0.80;;;;;;;-4.75;95.86;97567.06;5033442;28;19971;-71
2022/01/30 02:58:35;;;;;;;0.70;0.70;;;;;;;-4.76;95.55;97576.16;5024471;28;20032;-70
2022/01/30 03:01:02;;;;;;;0.50;0.35;;;;;;;-4.76;95.60;97560.13;5035980;28;20039;-70
2022/01/30 03:03:27;;;;;;;0.80;0.80;;;;;;;-4.76;96.00;97571.63;5048415;28;20042;-71
2022/01/30 03:05:53;;;;;;;0.85;0.68;;;;;;;-4.75;95.69;97554.50;5049161;28;20507;-70
2022/01/30 03:08:19;;;;;;;1.50;0.90;;;;;;;-4.75;95.98;97540.31;5047129;28;20047;-71
2022/01/30 03:10:44;;;;;;;1.08;0.90;;;;;;;-4.76;95.85;97536.84;5034757;28;20048;-70
2022/01/30 03:13:10;;;;;;;1.00;0.70;;;;;;;-4.75;95.50;97548.34;5041353;28;20033;-70
2022/01/30 03:15:36;;;;;;;1.25;0.80;;;;;;;-4.76;95.77;97534.16;5022870;28;20037;-70
2022/01/30 03:18:02;;;;;;;0.65;0.65;;;;;;;-4.74;95.77;97555.31;5043514;28;20047;-70
2022/01/30 03:20:28;;;;;;;1.00;0.90;;;;;;;-4.74;95.37;97563.34;5030318;28;20132;-71
2022/01/30 03:22:54;;;;;;;1.40;0.80;;;;;;;-4.75;95.55;97551.03;5036093;28;20028;-70
2022/01/30 03:25:19;;;;;;;1.25;0.73;;;;;;;-4.77;95.79;97551.28;5032261;28;20513;-71
2022/01/30 03:28:05;;;;;;;0.50;0.50;;;;;;;-4.76;95.21;97530.69;5034527;28;20083;-70
2022/01/30 03:30:37;;;;;;;0.68;0.63;;;;;;;-4.76;95.67;97520.81;5016256;28;20024;-70
2022/01/30 03:33:26;;;;;;;1.00;0.82;;;;;;;-4.75;95.01;97535.78;5037013;28;20041;-70
2022/01/30 03:35:52;;;;;;;0.80;0.80;;;;;;;-4.73;95.55;97506.09;5051620;28;20037;-71
2022/01/30 03:38:19;;;;;;;0.32;0.32;;;;;;;-4.68;95.15;97514.16;5030883;28;20047;-70
2022/01/30 03:40:45;;;;;;;0.52;0.52;;;;;;;-4.67;95.17;97531.84;5042043;28;20144;-70
2022/01/30 03:43:11;;;;;;;0.90;0.63;;;;;;;-4.68;95.06;97525.69;5044775;28;20045;-70
2022/01/30 03:45:37;;;;;;;1.60;0.93;;;;;;;-4.69;94.63;97521.34;5044226;28;20051;-70
2022/01/30 03:48:04;;;;;;;1.88;0.77;;;;;;;-4.70;95.06;97516.28;5050877;28;20600;-71
2022/01/30 03:50:55;;;;;;;0.80;0.70;;;;;;;-4.70;94.87;97521.63;5024681;28;20052;-71
2022/01/30 03:53:21;;;;;;;0.80;0.80;;;;;;;-4.69;95.03;97508.00;5043676;28;20037;-70
2022/01/30 03:55:47;;;;;;;1.33;0.80;;;;;;;-4.68;95.02;97531.03;5045624;28;20466;-71
2022/01/30 03:58:22;;;;;;;0.73;0.73;;;;;;;-4.69;94.94;97508.00;5034093;28;20068;-70
2022/01/30 04:00:48;;;;;;;2.50;0.93;;;;;;;-4.68;94.96;97516.84;5050128;28;20042;-70
2022/01/30 04:03:13;;;;;;;0.82;0.80;;;;;;;-4.68;94.41;97514.97;5035783;28;20037;-70
2022/01/30 04:05:39;;;;;;;0.88;0.82;;;;;;;-4.66;95.36;97499.47;5041851;28;20047;-70
2022/01/30 04:08:05;;;;;;;0.63;0.63;;;;;;;-4.65;94.77;97509.09;5048107;28;20430;-70
2022/01/30 04:11:06;;;;;;;1.17;0.80;;;;;;;-4.66;95.00;97526.22;5040009;28;20124;-70
2022/01/30 04:13:52;;;;;;;0.82;0.63;;;;;;;-4.65;94.39;97506.44;5048921;28;20039;-70
2022/01/30 04:16:53;;;;;;;0.88;0.73;;;;;;;-4.64;94.67;97517.94;5030945;28;20045;-70
2022/01/30 04:19:37;;;;;;;0.98;0.80;;;;;;;-4.65;94.83;97505.63;5042114;28;20049;-70
2022/01/30 04:22:41;;;;;;;1.00;0.90;;;;;;;-4.65;94.97;97500.28;5046990;28;20412;-70
2022/01/30 04:25:29;;;;;;;0.80;0.70;;;;;;;-4.64;95.27;97501.88;5023811;28;20036;-71
2022/01/30 04:28:04;;;;;;;1.13;0.80;;;;;;;-4.65;94.89;97493.06;5041964;28;20045;-70
2022/01/30 04:30:41;;;;;;;0.63;0.63;;;;;;;-4.66;94.91;97499.47;5004957;28;20036;-70
2022/01/30 04:33:21;;;;;;;0.77;0.77;;;;;;;-4.65;95.04;97501.06;5052394;28;20033;-70
2022/01/30 04:36:05;;;;;;;1.20;0.93;;;;;;;-4.65;95.37;97500.28;5052304;28;20482;-71
2022/01/30 04:39:17;;;;;;;0.70;0.70;;;;;;;-4.64;94.88;97500.00;5029746;28;20088;-71
2022/01/30 05:00:34;;;;;;;1.85;0.80;;;;;;;-4.63;95.20;97506.97;5034966;28;20151;-70
2022/01/30 05:06:14;;;;;;;0.70;0.70;;;;;;;-4.63;95.10;97515.00;5043256;28;20269;-70
2022/01/30 05:09:09;;;;;;;;;;;;;;;-4.62;95.30;97503.22;5011690;28;20538;-71
2022/01/30 05:11:59;;;;;;;0.82;0.80;;;;;;;-4.61;95.46;97510.19;5079180;28;19966;-71
2022/01/30 05:14:56;;;;;;;0.70;0.70;;;;;;;-4.59;95.17;97505.38;5024605;28;20036;-70
2022/01/30 05:17:38;;;;;;;0.80;0.80;;;;;;;-4.60;95.34;97511.78;5044193;28;20075;-71
2022/01/30 05:20:12;;;;;;;0.90;0.90;;;;;;;-4.60;95.02;97513.66;5034444;28;20435;-70
2022/01/30 05:23:04;;;;;;;1.10;0.90;;;;;;;-4.60;95.19;97516.34;5008024;28;20033;-71
2022/01/30 05:25:36;;;;;;;1.67;0.70;;;;;;;-4.59;95.18;97523.31;5042225;28;20033;-71
2022/01/30 05:28:07;;;;;;;0.60;0.60;;;;;;;-4.59;94.92;97516.06;5018586;28;20582;-71
2022/01/30 05:30:52;;;;;;;0.70;0.70;;;;;;;-4.57;95.11;97523.84;5028483;28;20055;-70
2022/01/30 05:33:37;;;;;;;0.90;0.82;;;;;;;-4.57;95.04;97515.81;5043155;28;20037;-71
2022/01/30 05:36:21;;;;;;;0.73;0.73;;;;;;;-4.56;94.88;97523.56;5045701;28;20068;-71
2022/01/30 05:39:13;;;;;;;0.60;0.60;;;;;;;-4.56;95.11;97520.91;5021137;28;20049;-71
2022/01/30 05:42:15;;;;;;;0.85;0.75;;;;;;;-4.56;95.06;97518.22;5047970;28;20041;-71
2022/01/30 05:45:09;;;;;;;1.88;0.70;;;;;;;-4.56;95.27;97528.94;5019905;28;20033;-70
2022/01/30 05:47:58;;;;;;;0.70;0.70;;;;;;;-4.55;95.24;97519.03;5031282;28;20041;-70
2022/01/30 05:50:37;;;;;;;0.68;0.68;;;;;;;-4.55;95.05;97519.84;5050284;28;20413;-70
2022/01/30 05:53:05;;;;;;;0.95;0.82;;;;;;;-4.55;95.79;97527.88;5043610;28;20091;-71
2022/01/30 05:55:51;;;;;;;0.73;0.50;;;;;;;-4.52;95.48;97517.69;5030187;28;20164;-71
2022/01/30 05:58:16;;;;;;;0.90;0.85;;;;;;;-4.52;95.47;97520.38;5029726;28;20526;-71
2022/01/30 06:01:01;;;;;;;1.00;0.70;;;;;;;-4.51;94.63;97532.69;5032741;28;20095;-70
2022/01/30 06:03:29;;;;;;;1.05;0.90;;;;;;;-4.52;95.49;97541.78;5073871;28;20082;-71
2022/01/30 06:05:55;;;;;;;0.50;0.50;;;;;;;-4.51;95.87;97524.66;5035586;28;20044;-71
2022/01/30 06:08:42;;;;;;;0.80;0.80;;;;;;;-4.51;95.75;97521.97;5033482;28;20046;-71
2022/01/30 06:11:09;;;;;;;1.42;0.70;;;;;;;-4.51;95.22;97530.00;5038657;28;20065;-71
2022/01/30 06:13:35;;;;;;;0.70;0.70;;;;;;;-4.50;95.32;97537.00;5038449;28;20060;-70
2022/01/30 06:16:01;;;;;;;0.93;0.70;;;;;;;-4.51;95.32;97525.50;5044524;28;20410;-70
2022/01/30 06:18:27;;;;;;;1.85;0.90;;;;;;;-4.51;95.47;97530.84;5014830;28;20052;-70
2022/01/30 06:21:07;;;;;;;1.13;0.77;;;;;;;-4.51;95.43;97556.78;5036862;28;20396;-70
2022/01/30 06:23:49;;;;;;;1.10;1.00;;;;;;;-4.50;96.08;97527.09;5042719;28;20044;-71
2022/01/30 06:26:40;;;;;;;1.23;0.63;;;;;;;-4.50;95.96;97531.66;5018695;28;20036;-71
2022/01/30 06:29:25;;;;;;;1.70;0.98;;;;;;;-4.50;95.79;97542.34;5045461;28;20033;-71
2022/01/30 06:32:20;;;;;;;1.17;0.80;;;;;;;-4.49;95.36;97549.31;5033167;28;20119;-70
2022/01/30 06:35:05;;;;;;;1.77;1.10;;;;;;;-4.49;95.38;97543.97;5043898;28;20091;-70
2022/01/30 06:37:49;;;;;;;1.10;1.00;;;;;;;-4.48;95.68;97565.09;5044034;28;20135;-71
2022/01/30 06:40:34;;;;;;;1.00;0.90;;;;;;;-4.48;95.76;97588.38;5034361;28;20045;-70
2022/01/30 06:43:18;;;;;;;1.58;0.90;;;;;;;-4.47;95.85;97566.72;5030812;28;20038;-71
2022/01/30 06:46:02;;;;;;;1.95;1.10;;;;;;;-4.46;95.82;97554.13;5036075;28;20124;-70
2022/01/30 06:48:47;;;;;;;1.50;1.10;;;;;;;-4.45;95.90;97577.16;5034715;28;20135;-70
2022/01/30 06:51:31;;;;;;;1.35;1.05;;;;;;;-4.44;95.91;97562.72;5035305;28;20514;-70
2022/01/30 06:54:21;;;;;;;1.27;1.10;;;;;;;-4.43;96.07;97581.19;5038029;28;20038;-70
2022/01/30 06:57:05;;;;;;;2.28;1.13;;;;;;;-4.43;95.91;97577.69;5034507;28;20091;-70
2022/01/30 06:59:50;;;;;;;1.10;1.00;;;;;;;-4.42;96.24;97568.59;5032614;28;20042;-70
2022/01/30 07:02:34;;;;;;;1.30;1.00;;;;;;;-4.40;95.64;97566.47;5036729;28;20064;-70
2022/01/30 07:05:29;;;;;;;1.38;0.93;;;;;;;-4.37;95.97;97579.34;5040886;28;20053;-69
2022/01/30 07:08:04;;;;;;;1.13;1.02;;;;;;;-4.37;95.50;97579.34;5030381;28;20041;-69
2022/01/30 07:10:30;;;;;;;1.10;1.00;;;;;;;-4.38;96.11;97567.81;5052031;28;20060;-71
2022/01/30 07:12:56;;;;;;;0.82;0.82;;;;;;;-4.36;96.21;97564.88;5049772;28;20338;-70
2022/01/30 07:15:21;;;;;;;0.80;0.80;;;;;;;-4.34;95.75;97578.81;5034239;28;20084;-70
2022/01/30 07:17:47;;;;;;;1.35;0.70;;;;;;;-4.32;96.30;97566.00;5047561;28;20044;-70
2022/01/30 07:20:13;;;;;;;1.73;1.27;;;;;;;-4.32;96.15;97556.09;5037592;28;20056;-70
2022/01/30 07:22:39;;;;;;;1.35;1.13;;;;;;;-4.30;96.22;97583.41;5048825;28;20032;-70
2022/01/30 07:25:07;;;;;;;0.95;0.90;;;;;;;-4.30;96.38;97579.91;5046268;28;20029;-71
2022/01/30 07:27:34;;;;;;;1.52;1.10;;;;;;;-4.27;96.54;97571.38;5041256;28;20041;-71
2022/01/30 07:30:00;;;;;;;1.75;1.30;;;;;;;-4.25;96.28;97574.59;5033262;28;20045;-70
2022/01/30 07:32:26;;;;;;;2.47;1.92;;;;;;;-4.28;96.67;97594.66;5038661;28;20543;-70
2022/01/30 07:34:52;;;;;;;1.38;1.00;;;;;;;-4.29;96.40;97586.88;5039324;28;20037;-70
2022/01/30 07:37:18;;;;;;;1.00;0.95;;;;;;;-4.28;95.96;97589.28;5043452;28;20041;-70
2022/01/30 07:39:44;;;;;;;1.30;1.00;;;;;;;-4.25;95.93;97593.31;5038636;28;20574;-70
2022/01/30 07:42:10;;;;;;;0.52;0.52;;;;;;;-4.25;96.72;97593.31;5049278;28;20036;-70
2022/01/30 07:44:38;;;;;;;0.77;0.77;;;;;;;-4.26;96.24;97616.59;5036055;28;20033;-70
2022/01/30 07:47:04;;;;;;;0.95;0.85;;;;;;;-4.23;96.95;97603.75;5045891;28;20072;-71
2022/01/30 07:49:30;;;;;;;1.23;1.08;;;;;;;-4.25;96.57;97615.53;5044607;28;20511;-71
2022/01/30 07:51:55;;;;;;;1.30;1.20;;;;;;;-4.22;96.00;97621.44;5050352;28;20037;-71
2022/01/30 07:54:21;;;;;;;1.33;1.20;;;;;;;-4.21;96.23;97631.06;5042866;28;20033;-71
2022/01/30 07:56:47;;;;;;;1.30;1.10;;;;;;;-4.19;96.06;97620.91;5048985;28;20048;-71
2022/01/30 07:59:12;;;;;;;1.30;1.20;;;;;;;-4.18;96.54;97620.66;5045577;28;20048;-71
2022/01/30 08:01:38;;;;;;;2.70;1.35;;;;;;;-4.18;96.26;97642.06;5049983;28;20045;-70
2022/01/30 08:04:06;;;;;;;1.40;1.30;;;;;;;-4.17;96.14;97641.00;5053941;28;20131;-70
2022/01/30 08:06:33;;;;;;;1.90;1.42;;;;;;;-4.15;96.28;97622.84;5037279;28;20526;-69
2022/01/30 08:08:58;;;;;;;1.55;1.30;;;;;;;-4.11;96.16;97633.81;5053615;28;20047;-71
2022/01/30 08:11:24;;;;;;;1.48;1.17;;;;;;;-4.12;96.77;97635.69;5043727;28;20124;-71
2022/01/30 08:13:50;;;;;;;1.88;1.40;;;;;;;-4.09;96.03;97650.44;5035716;28;20076;-70
2022/01/30 08:16:15;;;;;;;1.42;1.23;;;;;;;-4.07;96.61;97632.22;5037915;28;20079;-70
2022/01/30 08:18:41;;;;;;;1.60;1.20;;;;;;;-4.05;96.20;97635.44;5046571;28;20044;-70
2022/01/30 08:21:07;;;;;;;1.98;1.10;;;;;;;-4.01;96.02;97639.22;5045352;28;20128;-70
2022/01/30 08:23:34;;;;;;;1.92;1.10;;;;;;;-3.97;96.05;97638.44;5050447;28;20051;-70
2022/01/30 08:26:00;;;;;;;2.20;1.60;;;;;;;-3.93;96.04;97637.91;5033213;28;20033;-70
2022/01/30 08:28:26;;;;;;;2.83;1.67;;;;;;;-3.92;95.65;97639.53;5049959;28;20044;-71
2022/01/30 08:30:51;;;;;;;1.50;1.40;;;;;;;-3.93;96.17;97654.81;5038120;28;20033;-71
2022/01/30 08:33:17;;;;;;;1.10;1.00;;;;;;;-3.93;96.14;97637.91;5053118;28;20052;-71
2022/01/30 08:35:44;;;;;;;1.77;1.30;;;;;;;-3.90;95.97;97635.53;5039380;28;20038;-71
2022/01/30 08:38:11;;;;;;;2.15;1.10;;;;;;;-3.87;95.65;97655.63;5048004;28;20040;-71
2022/01/30 08:40:36;;;;;;;2.78;1.20;;;;;;;-3.87;95.84;97648.38;5043402;28;20036;-71
2022/01/30 08:43:02;;;;;;;1.63;1.15;;;;;;;-3.86;95.57;97644.63;5046240;28;20518;-71
2022/01/30 08:45:28;;;;;;;1.05;0.95;;;;;;;-3.83;95.90;97651.34;5044946;28;20151;-71
2022/01/30 08:47:54;;;;;;;1.20;1.00;;;;;;;-3.83;95.94;97654.03;5037821;28;20060;-71
2022/01/30 08:50:21;;;;;;;0.95;0.85;;;;;;;-3.82;95.72;97656.44;5045984;28;20444;-71
2022/01/30 08:52:47;;;;;;;1.35;1.20;;;;;;;-3.83;95.60;97660.19;5050579;28;20041;-71
2022/01/30 08:55:14;;;;;;;1.83;0.90;;;;;;;-3.83;95.83;97665.53;5044424;28;20034;-70
2022/01/30 08:57:40;;;;;;;2.80;1.25;;;;;;;-3.83;95.20;97656.69;5043123;28;20044;-71
2022/01/30 09:00:15;;;;;;;2.65;1.42;;;;;;;-3.80;95.24;97669.59;5051622;28;20099;-70
2022/01/30 09:02:40;;;;;;;1.92;1.42;;;;;;;-3.76;95.21;97690.25;5033747;28;20041;-70
2022/01/30 09:05:10;;;;;;;1.48;1.10;;;;;;;-3.77;95.61;97677.09;5038658;28;20072;-70
2022/01/30 09:07:36;;;;;;;3.45;1.38;;;;;;;-3.76;94.92;97692.91;5036763;28;20111;-70
2022/01/30 09:10:03;;;;;;;2.72;1.67;;;;;;;-3.75;95.58;97699.88;5035618;28;20064;-70
2022/01/30 09:12:29;;;;;;;1.27;1.17;;;;;;;-3.74;94.91;97696.13;5037689;28;20120;-71
2022/01/30 09:14:55;;;;;;;2.08;1.23;;;;;;;-3.70;95.21;97691.06;5036951;28;20634;-70
2022/01/30 09:17:22;;;;;;;2.25;1.40;;;;;;;-3.63;94.79;97686.28;5040196;28;20033;-71
2022/01/30 09:19:48;;;;;;;1.98;1.10;;;;;;;-3.59;95.01;97683.88;5035954;28;20041;-74
2022/01/30 09:22:16;;;;;;;1.10;0.98;;;;;;;-3.54;95.00;97689.25;5039081;28;20045;-71
2022/01/30 09:24:42;;;;;;;2.03;1.48;;;;;;;-3.53;94.80;97691.66;5037866;28;20396;-70
2022/01/30 09:27:08;;;;;;;0.10;0.10;;;;;;;-3.50;94.69;97695.69;5039660;28;20518;-72
2022/01/30 09:29:35;;;;;;;1.48;1.23;;;;;;;-3.48;94.47;97705.06;5021105;28;20037;-72
2022/01/30 09:32:01;;;;;;;0.93;0.82;;;;;;;-3.45;93.87;97699.22;5029311;28;20128;-72
2022/01/30 09:34:27;;;;;;;1.42;1.20;;;;;;;-3.42;94.22;97709.41;5027288;28;20052;-74
2022/01/30 09:36:52;;;;;;;2.17;1.30;;;;;;;-3.40;94.12;97711.81;5043489;28;20036;-72
2022/01/30 09:39:18;;;;;;;1.95;1.55;;;;;;;-3.40;94.10;97726.03;5037568;28;20168;-72
2022/01/30 09:41:44;;;;;;;1.63;1.23;;;;;;;-3.41;93.52;97700.28;5036664;28;20419;-71
2022/01/30 09:44:11;;;;;;;1.83;1.30;;;;;;;-3.39;93.70;97724.16;5035796;28;20047;-69
2022/01/30 09:46:42;;;;;;;0.45;0.35;;;;;;;-3.40;93.16;97726.03;5034362;28;20099;-71
2022/01/30 09:49:09;;;;;;;1.33;1.23;;;;;;;-3.40;92.92;97736.75;5042052;28;20059;-70
2022/01/30 09:51:36;;;;;;;1.70;1.02;;;;;;;-3.40;93.08;97728.72;5050751;28;20036;-70
2022/01/30 09:54:03;;;;;;;1.30;1.00;;;;;;;-3.38;93.13;97728.44;5036858;28;20056;-70
2022/01/30 09:56:29;;;;;;;1.48;1.00;;;;;;;-3.37;93.20;97736.22;5042673;28;20125;-70
2022/01/30 09:58:54;;;;;;;2.05;1.05;;;;;;;-3.36;92.96;97745.88;5044199;28;20132;-70
2022/01/30 10:01:20;;;;;;;2.63;1.30;;;;;;;-3.35;93.03;97752.84;5040595;28;20037;-70
2022/01/30 10:03:49;;;;;;;0.55;0.55;;;;;;;-3.33;92.91;97728.47;5038951;28;20033;-72
2022/01/30 10:06:20;;;;;;;2.08;1.20;;;;;;;-3.26;92.83;97747.00;5032894;28;20128;-72
2022/01/30 10:08:48;;;;;;;3.13;1.50;;;;;;;-3.24;92.34;97744.88;5028228;28;20063;-70
2022/01/30 10:11:33;;;;;;;2.63;1.20;;;;;;;-3.22;92.36;97750.75;5029097;28;20177;-70
2022/01/30 10:14:10;;;;;;;1.90;1.17;;;;;;;-3.19;92.40;97748.34;5040435;28;20049;-71
2022/01/30 10:16:49;;;;;;;0.82;0.77;;;;;;;-3.17;92.37;97762.31;5009987;28;20507;-73
2022/01/30 10:19:21;;;;;;;0.93;0.82;;;;;;;-3.16;92.21;97758.56;5025222;28;20041;-71
2022/01/30 10:22:06;;;;;;;3.00;1.40;;;;;;;-3.15;91.68;97775.44;5030346;28;20542;-72
2022/01/30 10:24:36;;;;;;;2.92;1.58;;;;;;;-3.16;92.05;97771.97;5032218;28;20076;-71
2022/01/30 10:27:18;;;;;;;2.40;1.40;;;;;;;-3.15;91.52;97770.09;5031412;28;20095;-71
2022/01/30 10:29:44;;;;;;;2.53;1.50;;;;;;;-3.14;91.66;97779.75;5042605;28;20043;-71
2022/01/30 10:32:10;;;;;;;2.13;1.20;;;;;;;-3.13;91.32;97776.78;5034203;28;20045;-73
2022/01/30 10:34:39;;;;;;;2.65;1.38;;;;;;;-3.12;91.56;97780.31;5041923;28;20033;-71
2022/01/30 10:37:14;;;;;;;2.15;1.50;;;;;;;-3.11;91.20;97771.19;5015962;28;20061;-72
2022/01/30 10:39:57;;;;;;;2.85;1.55;;;;;;;-3.09;91.63;97791.31;5029720;28;20597;-72
2022/01/30 10:42:33;;;;;;;2.70;1.30;;;;;;;-3.08;91.26;97784.06;5021084;28;20037;-73
2022/01/30 10:45:00;;;;;;;2.83;1.35;;;;;;;-3.01;91.02;97798.03;5028441;28;20030;-71
2022/01/30 10:47:26;;;;;;;1.73;1.40;;;;;;;-3.01;90.70;97787.31;5031574;28;20040;-72
2022/01/30 10:49:51;;;;;;;1.95;1.25;;;;;;;-3.04;91.06;97814.66;5030328;28;20037;-73
2022/01/30 10:52:17;;;;;;;2.38;1.30;;;;;;;-3.04;91.10;97818.16;5031351;28;20128;-74
2022/01/30 10:54:49;;;;;;;2.13;1.15;;;;;;;-3.04;91.10;97811.97;5033965;28;20033;-74
2022/01/30 10:57:15;;;;;;;2.63;1.20;;;;;;;-3.03;90.38;97818.94;5026524;28;20040;-74
2022/01/30 10:59:52;;;;;;;2.70;1.48;;;;;;;-3.01;90.38;97822.19;5033123;28;20049;-74
2022/01/30 11:02:22;;;;;;;2.38;1.40;;;;;;;-3.01;90.90;97816.81;5031625;28;20034;-75
2022/01/30 11:04:49;;;;;;;2.10;1.20;;;;;;;-3.02;90.94;97815.19;5025796;28;20048;-82
2022/01/30 11:07:18;;;;;;;1.40;1.10;;;;;;;-3.01;90.66;97814.13;5031614;28;20079;-72
2022/01/30 11:09:56;;;;;;;3.30;1.35;;;;;;;-3.00;90.65;97818.41;5036787;28;20062;-72
2022/01/30 11:12:31;;;;;;;1.85;1.30;;;;;;;-3.00;90.24;97810.38;5030366;28;20052;-72
2022/01/30 11:15:15;;;;;;;1.75;1.10;;;;;;;-2.99;90.74;97821.91;5028559;28;20040;-72
2022/01/30 11:17:43;;;;;;;1.50;1.40;;;;;;;-3.00;90.80;97828.34;5028322;28;20060;-72
2022/01/30 11:20:12;;;;;;;1.42;0.80;;;;;;;-3.01;90.87;97819.50;5038859;28;20084;-72
2022/01/30 11:22:38;;;;;;;2.17;1.25;;;;;;;-2.99;91.01;97836.13;5043145;28;20063;-71
2022/01/30 11:25:07;;;;;;;2.58;1.65;;;;;;;-2.99;90.63;97849.53;5038141;28;20033;-71
2022/01/30 11:27:33;;;;;;;2.75;1.60;;;;;;;-3.00;90.67;97845.25;5049434;28;20507;-71
2022/01/30 11:30:00;;;;;;;0.85;0.38;;;;;;;-3.05;90.78;97834.50;5039037;28;20052;-72
2022/01/30 11:32:27;;;;;;;1.25;1.00;;;;;;;-3.04;90.69;97833.44;5034995;28;20536;-71
2022/01/30 11:34:54;;;;;;;1.15;1.00;;;;;;;-3.05;90.72;97838.00;5044919;28;20082;-71
2022/01/30 11:37:19;;;;;;;2.15;1.27;;;;;;;-3.05;90.72;97856.78;5033711;28;20037;-72
2022/01/30 11:39:47;;;;;;;1.38;0.90;;;;;;;-3.06;90.79;97831.00;5042489;28;20514;-71
2022/01/30 11:42:14;;;;;;;1.50;1.10;;;;;;;-3.04;90.91;97833.44;5033415;28;20392;-72
2022/01/30 11:44:41;;;;;;;1.70;1.27;;;;;;;-3.00;90.79;97834.53;5045365;28;20107;-72
2022/01/30 11:47:08;;;;;;;2.97;1.25;;;;;;;-2.96;90.72;97849.00;5028999;28;20049;-71
2022/01/30 11:49:55;;;;;;;0.55;0.55;;;;;;;-2.94;90.99;97860.31;5041326;28;20040;-72
2022/01/30 11:52:47;;;;;;;2.28;1.20;;;;;;;-2.95;90.48;97855.19;5032044;28;20042;-71
2022/01/30 11:55:51;;;;;;;2.03;1.52;;;;;;;-2.96;90.55;97861.63;5050548;28;20075;-73
2022/01/30 11:58:29;;;;;;;1.77;0.80;;;;;;;-2.95;90.90;97856.03;5036352;28;20050;-72
2022/01/30 12:00:56;;;;;;;1.67;1.58;;;;;;;-2.95;90.36;97890.91;5052870;28;20561;-71
2022/01/30 12:03:29;;;;;;;1.52;1.20;;;;;;;-2.98;90.38;97869.94;5053522;28;20079;-71
2022/01/30 12:05:56;;;;;;;1.67;1.02;;;;;;;-2.97;90.76;97871.53;5031502;28;20124;-71
2022/01/30 12:08:47;;;;;;;1.23;1.13;;;;;;;-2.95;91.14;97879.34;5044389;28;20130;-71
2022/01/30 12:11:37;;;;;;;1.63;1.33;;;;;;;-2.93;90.72;97915.59;5041345;28;20033;-71
2022/01/30 12:14:26;;;;;;;1.70;1.40;;;;;;;-2.95;90.73;97884.69;5045701;28;20044;-71
2022/01/30 12:16:57;;;;;;;1.10;0.80;;;;;;;-2.96;90.84;97896.50;5042675;28;20044;-71
2022/01/30 12:19:31;;;;;;;0.35;0.10;;;;;;;-2.92;90.75;97889.56;5043673;28;20132;-70
2022/01/30 12:22:23;;;;;;;1.80;1.02;;;;;;;-2.88;89.58;97902.19;5034984;28;20046;-70
2022/01/30 12:24:51;;;;;;;1.38;0.85;;;;;;;-2.89;90.11;97908.63;5030573;28;20053;-72
2022/01/30 12:27:17;;;;;;;0.60;0.30;;;;;;;-2.89;90.25;97907.81;5042264;28;20036;-71
2022/01/30 12:29:52;;;;;;;1.90;1.02;;;;;;;-2.91;89.89;97913.44;5045226;28;20041;-71
2022/01/30 12:32:21;;;;;;;1.33;1.05;;;;;;;-2.91;89.35;97905.41;5050958;28;20038;-71
2022/01/30 12:34:48;;;;;;;1.35;0.85;;;;;;;-2.90;89.43;97925.78;5048478;28;20041;-71
2022/01/30 12:37:21;;;;;;;2.17;1.60;;;;;;;-2.91;89.64;97924.19;5035050;28;20040;-71
2022/01/30 12:39:46;;;;;;;2.30;1.10;;;;;;;-2.91;89.62;97934.91;5035803;28;20045;-71
2022/01/30 12:42:19;;;;;;;2.15;1.83;;;;;;;-2.88;89.84;97941.63;5047962;28;20052;-72
2022/01/30 12:44:45;;;;;;;0.75;0.65;;;;;;;-2.90;90.07;97949.94;5035060;28;20420;-72
2022/01/30 12:47:13;;;;;;;1.17;0.60;;;;;;;-2.91;89.67;97953.69;5052803;28;20415;-72
2022/01/30 12:49:43;;;;;;;1.35;0.80;;;;;;;-2.94;89.91;97951.53;5040685;28;20037;-72
2022/01/30 12:52:21;;;;;;;1.40;1.23;;;;;;;-2.93;89.62;97961.19;5034976;28;20033;-72